Terminal Aerodrome Forecast
Issued by NWS Wilmington, OH

Current Version | Previous Version | Graphics & Text | Print | Product List | Glossary On
Versions: 1 2 3 4 5 6 7 8 9 10 11 12 13 14 15 16 17
000
FTUS41 KILN 201342 AAA
TAFILN
TAF AMD
KILN 201342Z 2014/2112 23005KT P6SM BKN060
      TEMPO 2014/2015 5SM BR
     FM201700 25006KT P6SM BKN050
     FM210500 VRB03KT 5SM BR SCT250
     FM210800 00000KT 1/2SM FG SCT002=

USA.gov is the U.S. government's official web portal to all federal, state and local government web resources and services.